Time;durP1;ratioP1;P1;durP2;ratioP2;P2;SDS_P1;SDS_P2;PMS_P1;PMS_P2;Temp;Humidity;BMP_temperature;BMP_pressure;BME280_temperature;BME280_humidity;BME280_pressure;Samples;Min_cycle;Max_cycle;Signal;HPM_P1;HPM_P2
2022/06/14 00:03:17;;;;;;;;;;;13.30;73.30;;;;;;5069735;28;19919;-79
2022/06/14 00:05:42;;;;;;;;;;;13.30;73.10;;;;;;5072318;28;19913;-79
2022/06/14 00:08:08;;;;;;;;;;;13.20;73.10;;;;;;5061574;28;19940;-79
2022/06/14 00:10:33;;;;;;;;;;;13.30;73.30;;;;;;5063282;28;20346;-79
2022/06/14 00:12:59;;;;;;;;;;;13.10;73.60;;;;;;5072960;28;19916;-79
2022/06/14 00:15:24;;;;;;;;;;;13.20;73.70;;;;;;5075496;28;19917;-78
2022/06/14 00:17:50;;;;;;;;;;;13.10;74.10;;;;;;5078000;28;20007;-79
2022/06/14 00:20:15;;;;;;;;;;;13.00;74.80;;;;;;5071049;28;19948;-79
2022/06/14 00:22:41;;;;;;;;;;;13.10;74.50;;;;;;5070228;28;19928;-79
2022/06/14 00:25:07;;;;;;;;;;;13.00;74.60;;;;;;5056915;28;19969;-79
2022/06/14 00:27:32;;;;;;;;;;;13.10;74.30;;;;;;5073425;28;19935;-79
2022/06/14 00:29:58;;;;;;;;;;;13.10;74.30;;;;;;5072664;28;20053;-79
2022/06/14 00:32:23;;;;;;;;;;;13.10;74.00;;;;;;5058102;28;20291;-79
2022/06/14 00:34:49;;;;;;;;;;;13.10;74.10;;;;;;5075062;28;19917;-79
2022/06/14 00:37:16;;;;;;;;;;;13.10;74.20;;;;;;5075956;28;19912;-80
2022/06/14 00:39:41;;;;;;;;;;;13.10;74.10;;;;;;5056459;28;19908;-80
2022/06/14 00:42:15;;;;;;;;;;;13.00;74.40;;;;;;5059808;28;19966;-79
2022/06/14 00:44:40;;;;;;;;;;;12.90;74.50;;;;;;5056691;28;20326;-80
2022/06/14 00:47:09;;;;;;;;;;;12.90;74.70;;;;;;5073798;28;19952;-80
2022/06/14 00:49:36;;;;;;;;;;;12.90;74.70;;;;;;5074247;28;19908;-80
2022/06/14 00:52:23;;;;;;;;;;;12.90;74.80;;;;;;5073702;28;19966;-79
2022/06/14 00:54:51;;;;;;;;;;;12.80;75.40;;;;;;5064686;28;20395;-80
2022/06/14 00:57:19;;;;;;;;;;;12.80;75.90;;;;;;5072041;28;20264;-79
2022/06/14 00:59:50;;;;;;;;;;;12.90;75.70;;;;;;5057847;28;20023;-80
2022/06/14 01:02:20;;;;;;;;;;;13.00;75.40;;;;;;5068300;28;20032;-80
2022/06/14 01:04:46;;;;;;;;;;;13.00;75.10;;;;;;5055754;28;20245;-80
2022/06/14 01:07:24;;;;;;;;;;;12.80;75.00;;;;;;5071864;28;19919;-79
2022/06/14 01:09:51;;;;;;;;;;;12.80;75.20;;;;;;5054103;28;20270;-80
2022/06/14 01:12:20;;;;;;;;;;;12.80;75.20;;;;;;5071957;28;19924;-80
2022/06/14 01:14:59;;;;;;;;;;;12.60;75.20;;;;;;5064645;28;19947;-78
2022/06/14 01:17:25;;;;;;;;;;;12.50;75.80;;;;;;5076154;28;19944;-79
2022/06/14 01:19:51;;;;;;;;;;;12.50;75.90;;;;;;5089783;28;19954;-79
2022/06/14 01:22:16;;;;;;;;;;;12.50;76.10;;;;;;5054635;28;19994;-80
2022/06/14 01:24:43;;;;;;;;;;;12.50;76.00;;;;;;5074233;28;19916;-80
2022/06/14 01:27:10;;;;;;;;;;;12.50;76.30;;;;;;5072479;28;19913;-80
2022/06/14 01:29:36;;;;;;;;;;;12.50;76.20;;;;;;5060537;28;19913;-80
2022/06/14 01:32:04;;;;;;;;;;;12.50;75.70;;;;;;5042232;28;19927;-80
2022/06/14 01:34:30;;;;;;;;;;;12.50;75.80;;;;;;5042028;28;20318;-79
2022/06/14 01:36:57;;;;;;;;;;;12.40;76.30;;;;;;5055844;28;19916;-80
2022/06/14 01:39:23;;;;;;;;;;;12.40;76.40;;;;;;5076920;28;19932;-80
2022/06/14 01:42:07;;;;;;;;;;;12.40;76.10;;;;;;5057201;28;20232;-80
2022/06/14 01:44:35;;;;;;;;;;;12.30;76.20;;;;;;5077123;28;19912;-80
2022/06/14 01:47:00;;;;;;;;;;;12.30;76.30;;;;;;5067880;28;20008;-79
2022/06/14 01:52:23;;;;;;;;;;;12.20;76.50;;;;;;5073068;28;20003;-80
2022/06/14 01:55:07;;;;;;;;;;;12.20;76.60;;;;;;5074078;28;19917;-79
2022/06/14 01:57:33;;;;;;;;;;;12.10;76.80;;;;;;5077020;28;19913;-80
2022/06/14 02:00:09;;;;;;;;;;;12.10;76.90;;;;;;5076854;28;19916;-79
2022/06/14 02:02:38;;;;;;;;;;;12.10;77.10;;;;;;5075167;28;20347;-80
2022/06/14 02:05:04;;;;;;;;;;;12.10;77.00;;;;;;5076286;28;20367;-80
2022/06/14 02:07:48;;;;;;;;;;;12.10;76.90;;;;;;5078043;28;19913;-79
2022/06/14 02:10:13;;;;;;;;;;;12.10;77.10;;;;;;5076705;28;19913;-80
2022/06/14 02:12:42;;;;;;;;;;;12.10;77.00;;;;;;5075316;28;20395;-79
2022/06/14 02:15:14;;;;;;;;;;;12.00;77.20;;;;;;5077218;28;19912;-80
2022/06/14 02:17:43;;;;;;;;;;;12.10;77.30;;;;;;5076124;28;19942;-80
2022/06/14 02:20:12;;;;;;;;;;;12.00;77.80;;;;;;5064990;28;19940;-80
2022/06/14 02:22:51;;;;;;;;;;;12.10;78.20;;;;;;5075002;28;19919;-80
2022/06/14 02:25:35;;;;;;;;;;;12.10;78.50;;;;;;5072567;28;19932;-80
2022/06/14 02:28:04;;;;;;;;;;;12.20;78.50;;;;;;5075445;28;19917;-80
2022/06/14 02:30:32;;;;;;;;;;;12.30;78.40;;;;;;5071075;28;19912;-80
2022/06/14 02:33:05;;;;;;;;;;;12.30;78.10;;;;;;5069992;28;19975;-80
2022/06/14 02:35:33;;;;;;;;;;;12.30;78.00;;;;;;5075169;28;19995;-79
2022/06/14 02:38:07;;;;;;;;;;;12.30;77.90;;;;;;5055717;28;19920;-79
2022/06/14 02:40:35;;;;;;;;;;;12.30;78.00;;;;;;5070509;28;19913;-79
2022/06/14 02:43:09;;;;;;;;;;;12.30;78.00;;;;;;5071692;28;19924;-79
2022/06/14 02:45:37;;;;;;;;;;;12.40;78.10;;;;;;5053693;28;20114;-79
2022/06/14 02:48:06;;;;;;;;;;;12.30;78.50;;;;;;5072685;28;19934;-79
2022/06/14 02:50:44;;;;;;;;;;;12.30;78.70;;;;;;5076332;28;19930;-78
2022/06/14 02:53:14;;;;;;;;;;;12.30;78.50;;;;;;5092138;28;19963;-79
2022/06/14 02:55:51;;;;;;;;;;;12.40;78.20;;;;;;5070203;28;19920;-80
2022/06/14 02:58:22;;;;;;;;;;;12.40;77.80;;;;;;5059074;28;19913;-80
2022/06/14 03:00:54;;;;;;;;;;;12.30;78.00;;;;;;5073147;28;19917;-80
2022/06/14 03:03:33;;;;;;;;;;;12.20;78.30;;;;;;5078987;28;19920;-80
2022/06/14 03:06:19;;;;;;;;;;;12.20;78.30;;;;;;5077605;28;20353;-80
2022/06/14 03:08:47;;;;;;;;;;;12.10;78.20;;;;;;5068747;28;19909;-79
2022/06/14 03:11:15;;;;;;;;;;;12.00;78.20;;;;;;5074637;28;20414;-79
2022/06/14 03:13:56;;;;;;;;;;;12.00;78.40;;;;;;5075523;28;19951;-79
2022/06/14 03:16:24;;;;;;;;;;;12.00;77.80;;;;;;5062580;28;19922;-80
2022/06/14 03:19:04;;;;;;;;;;;11.80;78.40;;;;;;5064759;28;19959;-80
2022/06/14 03:21:43;;;;;;;;;;;11.90;78.40;;;;;;5073798;28;19920;-80
2022/06/14 03:24:21;;;;;;;;;;;11.90;78.60;;;;;;5057466;28;19966;-80
2022/06/14 03:27:04;;;;;;;;;;;12.00;78.60;;;;;;5054677;28;20403;-79
2022/06/14 03:29:49;;;;;;;;;;;12.00;78.70;;;;;;5076196;28;19912;-80
2022/06/14 03:32:25;;;;;;;;;;;12.00;78.50;;;;;;5074922;28;19992;-79
2022/06/14 03:34:52;;;;;;;;;;;12.00;78.40;;;;;;5076995;28;20035;-79
2022/06/14 03:37:18;;;;;;;;;;;11.90;78.70;;;;;;5075943;28;20012;-79
2022/06/14 03:39:56;;;;;;;;;;;11.90;79.10;;;;;;5056431;28;20082;-80
2022/06/14 03:42:22;;;;;;;;;;;12.00;79.00;;;;;;5071924;28;20238;-79
2022/06/14 03:44:48;;;;;;;;;;;12.10;78.80;;;;;;5075829;28;19919;-79
2022/06/14 03:47:22;;;;;;;;;;;12.10;78.60;;;;;;5073761;28;19977;-80
2022/06/14 03:49:53;;;;;;;;;;;12.10;78.70;;;;;;5066787;28;19912;-80
2022/06/14 03:52:26;;;;;;;;;;;12.00;78.90;;;;;;5073897;28;20323;-79
2022/06/14 03:55:14;;;;;;;;;;;11.90;79.00;;;;;;5073878;28;20508;-80
2022/06/14 03:57:51;;;;;;;;;;;11.70;79.60;;;;;;5063472;28;19925;-80
2022/06/14 04:00:35;;;;;;;;;;;11.50;80.30;;;;;;5060015;28;19943;-80
2022/06/14 04:03:12;;;;;;;;;;;11.50;80.60;;;;;;5052732;28;20012;-80
2022/06/14 04:05:40;;;;;;;;;;;11.70;80.10;;;;;;5073291;28;20355;-79
2022/06/14 04:08:29;;;;;;;;;;;11.80;80.10;;;;;;5055978;28;19916;-80
2022/06/14 04:11:13;;;;;;;;;;;11.90;79.90;;;;;;5068106;28;19919;-80
2022/06/14 04:14:01;;;;;;;;;;;11.90;79.70;;;;;;5052934;28;19984;-80
2022/06/14 04:16:45;;;;;;;;;;;12.00;79.70;;;;;;5071197;28;20440;-80
2022/06/14 04:19:18;;;;;;;;;;;12.10;79.60;;;;;;5076019;28;19913;-79
2022/06/14 04:21:57;;;;;;;;;;;12.10;79.50;;;;;;5066928;28;19913;-81
2022/06/14 04:24:25;;;;;;;;;;;12.20;79.70;;;;;;5079402;28;19915;-78
2022/06/14 04:26:50;;;;;;;;;;;12.20;79.70;;;;;;5076121;28;19924;-77
2022/06/14 04:29:31;;;;;;;;;;;12.20;79.50;;;;;;5053793;28;19912;-79
2022/06/14 04:32:00;;;;;;;;;;;12.20;79.90;;;;;;5064751;28;19920;-78
2022/06/14 04:34:28;;;;;;;;;;;12.30;79.50;;;;;;5058307;28;19986;-78
2022/06/14 04:36:59;;;;;;;;;;;12.40;78.90;;;;;;5056272;28;19975;-78
2022/06/14 04:39:45;;;;;;;;;;;12.30;78.90;;;;;;5060498;28;19908;-78
2022/06/14 04:42:33;;;;;;;;;;;12.40;79.00;;;;;;5060820;28;20061;-76
2022/06/14 04:45:32;;;;;;;;;;;12.40;78.80;;;;;;5057832;28;19916;-78
2022/06/14 04:48:13;;;;;;;;;;;12.50;79.00;;;;;;5022670;28;20426;-78
2022/06/14 04:50:44;;;;;;;;;;;12.60;79.00;;;;;;5069583;28;20436;-78
2022/06/14 04:53:25;;;;;;;;;;;12.80;79.20;;;;;;5056575;28;19916;-78
2022/06/14 04:55:58;;;;;;;;;;;12.80;79.60;;;;;;5053185;28;19917;-79
2022/06/14 04:58:42;;;;;;;;;;;12.80;79.60;;;;;;5044457;28;19917;-78
2022/06/14 05:01:12;;;;;;;;;;;12.70;79.60;;;;;;5085837;22;19932;-77
2022/06/14 05:03:43;;;;;;;;;;;12.60;80.30;;;;;;5059214;28;19916;-79
2022/06/14 05:06:19;;;;;;;;;;;12.60;80.70;;;;;;5046721;28;19909;-79
2022/06/14 05:08:56;;;;;;;;;;;12.60;81.10;;;;;;5060213;28;19913;-79
2022/06/14 05:11:42;;;;;;;;;;;12.70;81.10;;;;;;5057304;28;19920;-80
2022/06/14 05:14:14;;;;;;;;;;;12.90;80.60;;;;;;5035524;28;20318;-79
2022/06/14 05:16:52;;;;;;;;;;;13.00;80.70;;;;;;5046525;28;19925;-79
2022/06/14 05:19:17;;;;;;;;;;;13.10;80.50;;;;;;5043861;28;19912;-78
2022/06/14 05:21:46;;;;;;;;;;;13.10;80.50;;;;;;5032603;28;20280;-79
2022/06/14 05:24:13;;;;;;;;;;;13.20;80.20;;;;;;5042985;28;19912;-78
2022/06/14 05:26:51;;;;;;;;;;;13.30;80.10;;;;;;5039575;28;19932;-78
2022/06/14 05:29:16;;;;;;;;;;;13.50;79.90;;;;;;5053560;28;19917;-78
2022/06/14 05:31:45;;;;;;;;;;;13.50;79.40;;;;;;5036451;28;19917;-78
2022/06/14 05:34:16;;;;;;;;;;;13.60;79.10;;;;;;5057480;28;20254;-77
2022/06/14 05:36:49;;;;;;;;;;;13.60;77.70;;;;;;5054516;28;19913;-78
2022/06/14 05:39:29;;;;;;;;;;;13.80;76.70;;;;;;5051893;28;19913;-78
2022/06/14 05:42:14;;;;;;;;;;;13.90;76.60;;;;;;5056027;28;19913;-78
2022/06/14 05:44:44;;;;;;;;;;;14.00;75.00;;;;;;5043103;28;19920;-78
2022/06/14 05:47:13;;;;;;;;;;;14.10;74.70;;;;;;5067686;28;19991;-79
2022/06/14 05:49:42;;;;;;;;;;;14.10;74.90;;;;;;5047739;28;19921;-82
2022/06/14 05:52:10;;;;;;;;;;;14.10;74.70;;;;;;5040558;28;19923;-78
2022/06/14 05:55:11;;;;;;;;;;;14.10;74.20;;;;;;5042467;28;19932;-79
2022/06/14 05:57:47;;;;;;;;;;;14.20;74.20;;;;;;5009026;28;19964;-82
2022/06/14 06:00:18;;;;;;;;;;;14.30;73.60;;;;;;5045816;28;19923;-81
2022/06/14 06:02:48;;;;;;;;;;;14.30;72.60;;;;;;5054258;28;19917;-81
2022/06/14 06:05:13;;;;;;;;;;;14.40;73.10;;;;;;5059521;28;20291;-81
2022/06/14 06:07:42;;;;;;;;;;;14.40;72.50;;;;;;5048249;28;19917;-81
2022/06/14 06:10:10;;;;;;;;;;;14.40;72.40;;;;;;5051928;28;19940;-80
2022/06/14 06:12:58;;;;;;;;;;;14.50;72.80;;;;;;5054273;28;19924;-81
2022/06/14 06:15:26;;;;;;;;;;;14.60;72.80;;;;;;5031278;28;19920;-80
2022/06/14 06:17:55;;;;;;;;;;;14.60;72.70;;;;;;5055056;28;19913;-80
2022/06/14 06:20:21;;;;;;;;;;;14.70;72.30;;;;;;5057325;28;19920;-78
2022/06/14 06:22:52;;;;;;;;;;;15.00;71.80;;;;;;5066182;28;19912;-80
2022/06/14 06:25:39;;;;;;;;;;;15.10;70.20;;;;;;5065939;28;19994;-79
2022/06/14 06:28:25;;;;;;;;;;;15.00;70.70;;;;;;5059154;28;19920;-79
2022/06/14 06:31:03;;;;;;;;;;;15.10;70.40;;;;;;5046649;28;19943;-80
2022/06/14 06:33:30;;;;;;;;;;;15.20;71.60;;;;;;5064585;28;19978;-79
2022/06/14 06:36:03;;;;;;;;;;;15.30;69.20;;;;;;5065603;28;19935;-79
2022/06/14 06:38:35;;;;;;;;;;;15.50;69.30;;;;;;5060738;28;20447;-79
2022/06/14 06:43:58;;;;;;;;;;;15.40;68.90;;;;;;5065204;28;19923;-78
2022/06/14 06:46:27;;;;;;;;;;;15.60;67.90;;;;;;5046816;28;19962;-80
2022/06/14 06:48:56;;;;;;;;;;;15.60;68.30;;;;;;5065632;28;19988;-79
2022/06/14 06:51:24;;;;;;;;;;;15.70;68.20;;;;;;5065378;28;22237;-79
2022/06/14 06:53:59;;;;;;;;;;;15.80;68.50;;;;;;5060826;28;19983;-79
2022/06/14 06:56:28;;;;;;;;;;;15.80;68.50;;;;;;5051945;28;19917;-80
2022/06/14 06:58:59;;;;;;;;;;;16.00;68.50;;;;;;5042534;28;20318;-80
2022/06/14 07:01:31;;;;;;;;;;;16.30;67.80;;;;;;5039644;28;19996;-80
2022/06/14 07:04:00;;;;;;;;;;;16.50;67.10;;;;;;5057311;28;19976;-80
2022/06/14 07:06:28;;;;;;;;;;;16.70;65.40;;;;;;5062613;28;20656;-79
2022/06/14 07:08:59;;;;;;;;;;;16.90;65.40;;;;;;5051844;28;19917;-80
2022/06/14 07:11:38;;;;;;;;;;;16.90;65.20;;;;;;5052676;28;20376;-80
2022/06/14 07:14:06;;;;;;;;;;;17.00;65.10;;;;;;5038328;28;19987;-79
2022/06/14 07:16:47;;;;;;;;;;;16.90;64.70;;;;;;5051052;28;20055;-80
2022/06/14 07:19:18;;;;;;;;;;;17.00;65.10;;;;;;5030679;28;19920;-78
2022/06/14 07:22:03;;;;;;;;;;;17.20;63.60;;;;;;5036466;28;19909;-79
2022/06/14 07:24:44;;;;;;;;;;;17.40;62.50;;;;;;5055566;28;19920;-78
2022/06/14 07:27:13;;;;;;;;;;;17.30;62.70;;;;;;5057383;28;20395;-80
2022/06/14 07:29:42;;;;;;;;;;;17.40;61.50;;;;;;5057907;28;19913;-79
2022/06/14 07:32:17;;;;;;;;;;;17.30;61.00;;;;;;5056538;28;20314;-78
2022/06/14 07:34:44;;;;;;;;;;;17.10;63.20;;;;;;5035404;28;19916;-81
2022/06/14 07:37:14;;;;;;;;;;;16.90;62.50;;;;;;5055249;28;19916;-79
2022/06/14 07:39:40;;;;;;;;;;;16.80;63.60;;;;;;5040321;28;19984;-80
2022/06/14 07:42:08;;;;;;;;;;;16.70;64.00;;;;;;5043254;28;19909;-78
2022/06/14 07:44:38;;;;;;;;;;;16.80;63.70;;;;;;5036607;28;19919;-80
2022/06/14 07:47:04;;;;;;;;;;;16.70;64.30;;;;;;5046282;28;19917;-80
2022/06/14 07:49:42;;;;;;;;;;;16.50;65.10;;;;;;5042806;28;19916;-80
2022/06/14 07:52:12;;;;;;;;;;;16.40;64.50;;;;;;5047860;28;19915;-80
2022/06/14 07:54:41;;;;;;;;;;;16.30;65.20;;;;;;5057146;28;20318;-80
2022/06/14 07:57:21;;;;;;;;;;;16.40;64.60;;;;;;5061326;28;19931;-80
2022/06/14 07:59:52;;;;;;;;;;;16.40;64.40;;;;;;5046066;28;19928;-80
2022/06/14 08:02:28;;;;;;;;;;;16.20;64.70;;;;;;5061602;28;19924;-80
2022/06/14 08:04:55;;;;;;;;;;;16.00;66.10;;;;;;5058069;28;19933;-79
2022/06/14 08:07:21;;;;;;;;;;;16.10;65.60;;;;;;5061208;28;19944;-78
2022/06/14 08:09:54;;;;;;;;;;;16.00;66.60;;;;;;5067440;28;19943;-80
2022/06/14 08:12:19;;;;;;;;;;;16.10;65.10;;;;;;5030635;28;19913;-80
2022/06/14 08:14:47;;;;;;;;;;;16.30;64.80;;;;;;5045719;28;19974;-78
2022/06/14 08:17:15;;;;;;;;;;;16.60;64.20;;;;;;5061483;28;19913;-80
2022/06/14 08:19:44;;;;;;;;;;;16.80;63.60;;;;;;5045030;28;19913;-80
2022/06/14 08:22:12;;;;;;;;;;;17.30;61.60;;;;;;5071604;28;20069;-80
2022/06/14 08:24:44;;;;;;;;;;;17.40;62.00;;;;;;5063633;28;19992;-80
2022/06/14 08:27:15;;;;;;;;;;;17.60;62.10;;;;;;5044338;28;19975;-81
2022/06/14 08:29:43;;;;;;;;;;;17.80;61.10;;;;;;5060799;28;19913;-81
2022/06/14 08:32:27;;;;;;;;;;;18.00;60.20;;;;;;5068797;28;20016;-79
2022/06/14 08:35:01;;;;;;;;;;;18.00;59.70;;;;;;5063848;28;19987;-80
2022/06/14 08:37:32;;;;;;;;;;;17.90;60.10;;;;;;5042059;28;19925;-79
2022/06/14 08:40:10;;;;;;;;;;;17.90;60.50;;;;;;5059239;28;19913;-80
2022/06/14 08:42:39;;;;;;;;;;;18.10;57.30;;;;;;5010626;28;19987;-78
2022/06/14 08:45:07;;;;;;;;;;;18.10;55.90;;;;;;5021282;28;20434;-79
2022/06/14 08:47:48;;;;;;;;;;;18.00;55.30;;;;;;5039543;28;19913;-79
2022/06/14 08:50:44;;;;;;;;;;;18.00;56.30;;;;;;5043560;28;19947;-79
2022/06/14 08:53:12;;;;;;;;;;;17.90;56.80;;;;;;5054682;28;19921;-78
2022/06/14 08:55:57;;;;;;;;;;;17.70;55.60;;;;;;5040022;28;19913;-78
2022/06/14 08:58:41;;;;;;;;;;;17.60;57.30;;;;;;5040760;28;19921;-79
2022/06/14 09:01:30;;;;;;;;;;;17.50;56.80;;;;;;5049451;28;20146;-79
2022/06/14 09:04:15;;;;;;;;;;;17.30;57.30;;;;;;5010377;28;19923;-79
2022/06/14 09:06:52;;;;;;;;;;;17.30;58.30;;;;;;5029174;28;19913;-80
2022/06/14 09:09:37;;;;;;;;;;;17.30;56.10;;;;;;5037526;28;19913;-79
2022/06/14 09:12:02;;;;;;;;;;;17.20;57.00;;;;;;5048259;28;19970;-79
2022/06/14 09:14:31;;;;;;;;;;;17.30;57.40;;;;;;5048873;28;19928;-79
2022/06/14 09:17:02;;;;;;;;;;;17.70;56.90;;;;;;5037948;28;19951;-79
2022/06/14 09:19:40;;;;;;;;;;;18.00;56.40;;;;;;5040192;28;19924;-79
2022/06/14 09:22:17;;;;;;;;;;;18.30;54.40;;;;;;5047834;28;19931;-79
2022/06/14 09:25:01;;;;;;;;;;;18.50;56.50;;;;;;5044866;28;19948;-79
2022/06/14 09:27:32;;;;;;;;;;;18.60;55.70;;;;;;5066971;28;19975;-77
2022/06/14 09:30:13;;;;;;;;;;;18.80;54.90;;;;;;5020367;28;20250;-77
2022/06/14 09:35:48;;;;;;;;;;;18.50;55.80;;;;;;5020060;28;19982;-77
2022/06/14 09:38:32;;;;;;;;;;;18.40;55.10;;;;;;4994091;28;19963;-77
2022/06/14 09:41:02;;;;;;;;;;;18.20;55.40;;;;;;5013293;28;20196;-78
2022/06/14 09:43:48;;;;;;;;;;;17.80;56.80;;;;;;5015614;28;20157;-78
2022/06/14 09:46:23;;;;;;;;;;;17.50;56.30;;;;;;5027143;28;19920;-77
2022/06/14 09:48:51;;;;;;;;;;;17.30;57.80;;;;;;5007671;28;20130;-77
2022/06/14 09:51:35;;;;;;;;;;;17.20;58.40;;;;;;4990085;28;20178;-78
2022/06/14 09:54:16;;;;;;;;;;;17.30;58.50;;;;;;4990457;28;20250;-78
2022/06/14 09:56:44;;;;;;;;;;;17.70;57.00;;;;;;5028426;28;19909;-77
2022/06/14 09:59:19;;;;;;;;;;;17.80;55.20;;;;;;5020800;28;19913;-78
2022/06/14 10:02:03;;;;;;;;;;;18.00;55.10;;;;;;5056327;28;19916;-79
2022/06/14 10:04:34;;;;;;;;;;;18.20;54.60;;;;;;5053249;28;19921;-78
2022/06/14 10:07:20;;;;;;;;;;;18.50;54.40;;;;;;5060595;28;19967;-79
2022/06/14 10:09:57;;;;;;;;;;;18.80;53.60;;;;;;5050885;28;19909;-81
2022/06/14 10:12:42;;;;;;;;;;;19.00;52.50;;;;;;5041180;28;19917;-80
2022/06/14 10:15:15;;;;;;;;;;;19.60;52.60;;;;;;5056371;28;19917;-83
2022/06/14 10:18:06;;;;;;;;;;;19.70;51.20;;;;;;5067406;28;19924;-81
2022/06/14 10:20:32;;;;;;;;;;;19.90;51.20;;;;;;5023067;28;19913;-81
2022/06/14 10:23:11;;;;;;;;;;;19.70;52.50;;;;;;5047539;28;19924;-81
2022/06/14 10:28:35;;;;;;;;;;;19.50;52.90;;;;;;5055728;28;20352;-83
2022/06/14 10:31:12;;;;;;;;;;;19.10;53.30;;;;;;5049663;28;19912;-81
2022/06/14 10:33:47;;;;;;;;;;;19.00;54.00;;;;;;5056401;28;19928;-81
2022/06/14 10:36:15;;;;;;;;;;;18.80;55.40;;;;;;5055047;28;19923;-81
2022/06/14 10:38:50;;;;;;;;;;;18.70;54.60;;;;;;5061911;28;19913;-81
2022/06/14 10:41:21;;;;;;;;;;;18.50;54.70;;;;;;5068689;28;19917;-81
2022/06/14 10:44:03;;;;;;;;;;;18.40;55.00;;;;;;5058227;28;20384;-82
2022/06/14 10:46:33;;;;;;;;;;;18.30;55.30;;;;;;5050315;28;19928;-82
2022/06/14 10:49:31;;;;;;;;;;;18.70;54.70;;;;;;5040798;28;19951;-81
2022/06/14 10:52:16;;;;;;;;;;;19.00;53.10;;;;;;5007765;28;19913;-80
2022/06/14 10:54:44;;;;;;;;;;;19.00;52.70;;;;;;5060350;28;19917;-82
2022/06/14 10:57:37;;;;;;;;;;;19.10;53.60;;;;;;5035950;28;20302;-81
2022/06/14 11:00:08;;;;;;;;;;;19.40;52.20;;;;;;5033840;28;19901;-82
2022/06/14 11:02:43;;;;;;;;;;;19.50;53.00;;;;;;5048404;28;19917;-82
2022/06/14 11:05:19;;;;;;;;;;;19.40;52.20;;;;;;5064778;28;19913;-80
2022/06/14 11:08:05;;;;;;;;;;;19.10;53.20;;;;;;5056115;28;19924;-81
2022/06/14 11:10:31;;;;;;;;;;;18.80;52.40;;;;;;5057650;28;19916;-82
2022/06/14 11:12:56;;;;;;;;;;;18.60;53.80;;;;;;5042070;28;20004;-82
2022/06/14 11:15:27;;;;;;;;;;;18.80;52.90;;;;;;5053338;28;19994;-83
2022/06/14 11:17:59;;;;;;;;;;;18.90;53.90;;;;;;5067808;28;19921;-82
2022/06/14 11:20:44;;;;;;;;;;;18.80;53.70;;;;;;5060418;28;19927;-83
2022/06/14 11:23:19;;;;;;;;;;;18.80;53.20;;;;;;5055654;28;19913;-83
2022/06/14 11:25:44;;;;;;;;;;;18.80;53.00;;;;;;5073165;28;19917;-83
2022/06/14 11:28:29;;;;;;;;;;;18.80;51.60;;;;;;5038059;28;19920;-82
2022/06/14 11:31:20;;;;;;;;;;;18.90;51.70;;;;;;5019608;28;20428;-82
2022/06/14 11:33:47;;;;;;;;;;;18.70;51.60;;;;;;5035068;28;19931;-82
2022/06/14 11:36:31;;;;;;;;;;;18.60;52.20;;;;;;5056001;28;19949;-82
2022/06/14 11:39:02;;;;;;;;;;;18.80;52.00;;;;;;5053622;28;19913;-83
2022/06/14 11:41:29;;;;;;;;;;;19.00;51.00;;;;;;5044027;28;20383;-82
2022/06/14 11:43:55;;;;;;;;;;;18.80;51.30;;;;;;5048998;28;19923;-83
2022/06/14 11:46:30;;;;;;;;;;;18.70;52.00;;;;;;5058243;28;19982;-82
2022/06/14 11:49:00;;;;;;;;;;;19.00;51.90;;;;;;5053367;28;19924;-83
2022/06/14 11:51:44;;;;;;;;;;;19.00;53.90;;;;;;5050202;28;20004;-83
2022/06/14 11:54:17;;;;;;;;;;;19.10;53.20;;;;;;5037291;28;19925;-83
2022/06/14 11:56:49;;;;;;;;;;;19.40;52.40;;;;;;5021652;28;19909;-83
2022/06/14 11:59:20;;;;;;;;;;;19.40;51.40;;;;;;5038950;28;19939;-81
2022/06/14 12:01:46;;;;;;;;;;;19.50;50.30;;;;;;5057468;28;19920;-82
2022/06/14 12:04:11;;;;;;;;;;;19.30;50.90;;;;;;5048984;28;19935;-82
2022/06/14 12:06:41;;;;;;;;;;;19.30;50.40;;;;;;5060388;28;20020;-82
2022/06/14 12:09:26;;;;;;;;;;;19.20;49.90;;;;;;5058098;28;20379;-83
2022/06/14 12:11:57;;;;;;;;;;;19.20;49.90;;;;;;5026026;28;19999;-83
2022/06/14 12:14:25;;;;;;;;;;;19.10;50.00;;;;;;5030135;28;19946;-82
2022/06/14 12:16:57;;;;;;;;;;;19.10;52.00;;;;;;5039184;28;20356;-80
2022/06/14 12:19:25;;;;;;;;;;;19.10;51.10;;;;;;5035233;28;19919;-80
2022/06/14 12:22:00;;;;;;;;;;;19.20;52.00;;;;;;5045960;28;19924;-81
2022/06/14 12:26:34;;;;;;;;;;;19.50;49.60;;;;;;5038768;28;19912;-82
2022/06/14 12:27:18;;;;;;;;;;;19.50;49.60;;;;;;5067124;28;19913;-83
2022/06/14 12:29:47;;;;;;;;;;;19.30;50.00;;;;;;5060354;28;20024;-81
2022/06/14 12:32:16;;;;;;;;;;;19.30;50.80;;;;;;5036090;28;19917;-81
2022/06/14 12:34:46;;;;;;;;;;;19.60;48.80;;;;;;5039511;28;19920;-80
2022/06/14 12:37:34;;;;;;;;;;;19.60;48.10;;;;;;5044755;28;20000;-81
2022/06/14 12:40:09;;;;;;;;;;;19.60;47.90;;;;;;5033708;28;21635;-79
2022/06/14 12:42:37;;;;;;;;;;;19.90;47.80;;;;;;5029517;28;20466;-81
2022/06/14 12:45:06;;;;;;;;;;;19.80;48.60;;;;;;5051645;28;19928;-81
2022/06/14 12:47:48;;;;;;;;;;;19.80;49.70;;;;;;5045096;28;19917;-81
2022/06/14 12:50:37;;;;;;;;;;;20.10;49.10;;;;;;5063610;28;19946;-80
2022/06/14 12:53:10;;;;;;;;;;;20.00;48.30;;;;;;5028640;28;19913;-81
2022/06/14 12:55:39;;;;;;;;;;;20.10;48.50;;;;;;5050521;28;19913;-80
2022/06/14 12:58:16;;;;;;;;;;;20.10;47.80;;;;;;5025050;28;19913;-80
2022/06/14 13:01:05;;;;;;;;;;;20.00;48.50;;;;;;5004939;28;20167;-80
2022/06/14 13:03:43;;;;;;;;;;;20.00;49.50;;;;;;4990509;28;20292;-80
2022/06/14 13:06:24;;;;;;;;;;;20.10;47.90;;;;;;4976148;28;20107;-82
2022/06/14 13:09:08;;;;;;;;;;;20.10;48.40;;;;;;5010563;28;19958;-80
2022/06/14 13:11:38;;;;;;;;;;;20.00;48.70;;;;;;4995451;28;19925;-81
2022/06/14 13:14:03;;;;;;;;;;;20.00;47.80;;;;;;4998415;28;20051;-78
2022/06/14 13:16:37;;;;;;;;;;;20.10;48.10;;;;;;5016828;28;20114;-79
2022/06/14 13:19:12;;;;;;;;;;;20.00;50.30;;;;;;5011191;28;19965;-79
2022/06/14 13:21:58;;;;;;;;;;;20.10;47.80;;;;;;5039313;28;19913;-80
2022/06/14 13:24:29;;;;;;;;;;;20.10;48.60;;;;;;5012925;28;19897;-79
2022/06/14 13:27:17;;;;;;;;;;;20.10;50.40;;;;;;5031377;28;19924;-79
2022/06/14 13:29:55;;;;;;;;;;;20.40;48.70;;;;;;5012152;28;19920;-80
2022/06/14 13:32:53;;;;;;;;;;;20.30;48.70;;;;;;5026428;28;19908;-79
2022/06/14 13:35:28;;;;;;;;;;;20.10;49.90;;;;;;4987738;28;19947;-80
2022/06/14 13:38:17;;;;;;;;;;;20.20;49.30;;;;;;5027247;28;20087;-80
2022/06/14 13:40:54;;;;;;;;;;;20.40;48.30;;;;;;5013063;28;19912;-79
2022/06/14 13:43:28;;;;;;;;;;;20.60;46.60;;;;;;5021252;28;19914;-79
2022/06/14 13:45:53;;;;;;;;;;;20.50;47.30;;;;;;5003266;28;19975;-78
2022/06/14 13:48:27;;;;;;;;;;;20.30;47.30;;;;;;4996604;28;19917;-77
2022/06/14 13:50:55;;;;;;;;;;;20.40;47.00;;;;;;4995432;28;19909;-77
2022/06/14 13:53:29;;;;;;;;;;;20.30;46.90;;;;;;4987342;28;19955;-78
2022/06/14 13:56:01;;;;;;;;;;;20.20;47.40;;;;;;5022547;28;19908;-78
2022/06/14 13:58:30;;;;;;;;;;;20.20;47.10;;;;;;5018066;28;20257;-79
2022/06/14 14:01:05;;;;;;;;;;;20.20;47.50;;;;;;5016574;28;19909;-78
2022/06/14 14:03:36;;;;;;;;;;;20.40;47.40;;;;;;5046391;28;20439;-79
2022/06/14 14:06:01;;;;;;;;;;;20.60;46.30;;;;;;5058250;28;19908;-79
2022/06/14 14:08:30;;;;;;;;;;;20.50;46.30;;;;;;5047694;28;20027;-79
2022/06/14 14:11:14;;;;;;;;;;;20.60;46.80;;;;;;5032003;28;20450;-78
2022/06/14 14:13:45;;;;;;;;;;;20.80;46.10;;;;;;5010397;28;19931;-79
2022/06/14 14:16:14;;;;;;;;;;;20.80;45.80;;;;;;5008526;28;19920;-79
2022/06/14 14:18:48;;;;;;;;;;;20.70;45.80;;;;;;5030665;28;19924;-77
2022/06/14 14:21:27;;;;;;;;;;;20.80;45.20;;;;;;5008406;28;20182;-78
2022/06/14 14:23:52;;;;;;;;;;;20.70;45.60;;;;;;4991686;28;20000;-78
2022/06/14 14:26:27;;;;;;;;;;;20.90;44.80;;;;;;4993919;28;20816;-79
2022/06/14 14:29:04;;;;;;;;;;;20.90;45.10;;;;;;5002279;28;19916;-78
2022/06/14 14:31:30;;;;;;;;;;;20.90;45.00;;;;;;5005638;28;19947;-78
2022/06/14 14:34:09;;;;;;;;;;;20.80;45.20;;;;;;5003476;28;19931;-78
2022/06/14 14:36:44;;;;;;;;;;;20.80;45.30;;;;;;5026508;28;19909;-77
2022/06/14 14:39:13;;;;;;;;;;;20.80;45.90;;;;;;5021342;28;19912;-77
2022/06/14 14:42:05;;;;;;;;;;;20.70;46.40;;;;;;5041260;28;19927;-78
2022/06/14 14:44:30;;;;;;;;;;;20.80;46.60;;;;;;5014239;28;19909;-78
2022/06/14 14:46:59;;;;;;;;;;;20.80;46.30;;;;;;5031594;28;20392;-78
2022/06/14 14:49:27;;;;;;;;;;;20.90;45.40;;;;;;5014260;28;19920;-79
2022/06/14 14:51:57;;;;;;;;;;;21.00;44.70;;;;;;5014982;28;19975;-78
2022/06/14 14:54:41;;;;;;;;;;;21.00;44.70;;;;;;5015651;28;20731;-77
2022/06/14 14:57:25;;;;;;;;;;;21.10;45.10;;;;;;5030471;28;19908;-78
2022/06/14 14:59:52;;;;;;;;;;;21.10;45.00;;;;;;5024623;28;20011;-78
2022/06/14 15:05:21;;;;;;;;;;;21.10;44.50;;;;;;5023672;28;20488;-79
2022/06/14 15:07:53;;;;;;;;;;;21.20;43.60;;;;;;4988203;28;19920;-76
2022/06/14 15:10:24;;;;;;;;;;;21.40;42.60;;;;;;4984924;28;19921;-81